sensor_id;sensor_type;location;lat;lon;timestamp;pressure;altitude;pressure_sealevel;temperature;humidity
26043;BME280;13818;52.156;5.382;2023-01-30T00:01:37;101417.19;;;6.88;100.00
26043;BME280;13818;52.156;5.382;2023-01-30T00:04:04;101431.13;;;6.96;100.00
26043;BME280;13818;52.156;5.382;2023-01-30T00:06:31;101426.84;;;6.90;100.00
26043;BME280;13818;52.156;5.382;2023-01-30T00:08:57;101438.19;;;6.97;100.00
26043;BME280;13818;52.156;5.382;2023-01-30T00:11:24;101440.69;;;7.03;100.00
26043;BME280;13818;52.156;5.382;2023-01-30T00:13:52;101436.16;;;7.10;100.00
26043;BME280;13818;52.156;5.382;2023-01-30T00:16:19;101441.44;;;7.11;100.00
26043;BME280;13818;52.156;5.382;2023-01-30T00:18:47;101422.75;;;7.16;100.00
26043;BME280;13818;52.156;5.382;2023-01-30T00:21:13;101409.59;;;7.11;100.00
26043;BME280;13818;52.156;5.382;2023-01-30T00:23:41;101393.75;;;7.10;100.00
26043;BME280;13818;52.156;5.382;2023-01-30T00:26:08;101398.91;;;7.14;100.00
26043;BME280;13818;52.156;5.382;2023-01-30T00:28:35;101395.28;;;7.20;100.00
26043;BME280;13818;52.156;5.382;2023-01-30T00:31:02;101393.53;;;7.19;100.00
26043;BME280;13818;52.156;5.382;2023-01-30T00:33:28;101388.13;;;7.22;100.00
26043;BME280;13818;52.156;5.382;2023-01-30T00:35:57;101386.47;;;7.18;100.00
26043;BME280;13818;52.156;5.382;2023-01-30T00:38:24;101374.03;;;7.22;100.00
26043;BME280;13818;52.156;5.382;2023-01-30T00:40:50;101358.16;;;7.19;100.00
26043;BME280;13818;52.156;5.382;2023-01-30T00:43:18;101361.53;;;7.27;100.00
26043;BME280;13818;52.156;5.382;2023-01-30T00:46:08;101369.38;;;7.31;100.00
26043;BME280;13818;52.156;5.382;2023-01-30T00:49:04;101366.56;;;7.38;100.00
26043;BME280;13818;52.156;5.382;2023-01-30T00:51:32;101360.34;;;7.39;100.00
26043;BME280;13818;52.156;5.382;2023-01-30T00:53:58;101357.53;;;7.45;100.00
26043;BME280;13818;52.156;5.382;2023-01-30T00:56:25;101360.22;;;7.43;100.00
26043;BME280;13818;52.156;5.382;2023-01-30T00:58:51;101350.53;;;7.44;100.00
26043;BME280;13818;52.156;5.382;2023-01-30T01:01:18;101346.03;;;7.46;100.00
26043;BME280;13818;52.156;5.382;2023-01-30T01:03:44;101360.03;;;7.51;100.00
26043;BME280;13818;52.156;5.382;2023-01-30T01:06:10;101353.84;;;7.52;100.00
26043;BME280;13818;52.156;5.382;2023-01-30T01:08:38;101338.81;;;7.51;100.00
26043;BME280;13818;52.156;5.382;2023-01-30T01:11:05;101328.94;;;7.58;100.00
26043;BME280;13818;52.156;5.382;2023-01-30T01:13:31;101321.03;;;7.55;100.00
26043;BME280;13818;52.156;5.382;2023-01-30T01:15:58;101322.75;;;7.57;100.00
26043;BME280;13818;52.156;5.382;2023-01-30T01:18:24;101324.50;;;7.58;100.00
26043;BME280;13818;52.156;5.382;2023-01-30T01:20:51;101313.88;;;7.58;100.00
26043;BME280;13818;52.156;5.382;2023-01-30T01:23:17;101304.91;;;7.62;100.00
26043;BME280;13818;52.156;5.382;2023-01-30T01:25:45;101303.22;;;7.60;100.00
26043;BME280;13818;52.156;5.382;2023-01-30T01:28:11;101303.06;;;7.66;100.00
26043;BME280;13818;52.156;5.382;2023-01-30T01:30:38;101297.00;;;7.61;100.00
26043;BME280;13818;52.156;5.382;2023-01-30T01:33:04;101308.38;;;7.66;100.00
26043;BME280;13818;52.156;5.382;2023-01-30T01:35:31;101300.41;;;7.66;100.00
26043;BME280;13818;52.156;5.382;2023-01-30T01:37:57;101300.38;;;7.68;100.00
26043;BME280;13818;52.156;5.382;2023-01-30T01:40:24;101288.78;;;7.72;100.00
26043;BME280;13818;52.156;5.382;2023-01-30T01:43:16;101285.44;;;7.63;100.00
26043;BME280;13818;52.156;5.382;2023-01-30T01:45:43;101284.50;;;7.66;100.00
26043;BME280;13818;52.156;5.382;2023-01-30T01:48:14;101306.72;;;7.62;100.00
26043;BME280;13818;52.156;5.382;2023-01-30T01:50:44;101301.63;;;7.54;100.00
26043;BME280;13818;52.156;5.382;2023-01-30T01:53:14;101289.91;;;7.63;100.00
26043;BME280;13818;52.156;5.382;2023-01-30T01:55:43;101293.25;;;7.70;100.00
26043;BME280;13818;52.156;5.382;2023-01-30T01:58:16;101279.88;;;7.73;100.00
26043;BME280;13818;52.156;5.382;2023-01-30T02:00:43;101273.75;;;7.71;100.00
26043;BME280;13818;52.156;5.382;2023-01-30T02:03:14;101273.81;;;7.69;100.00
26043;BME280;13818;52.156;5.382;2023-01-30T02:05:46;101279.75;;;7.77;100.00
26043;BME280;13818;52.156;5.382;2023-01-30T02:08:17;101271.16;;;7.69;100.00
26043;BME280;13818;52.156;5.382;2023-01-30T02:10:49;101272.00;;;7.70;100.00
26043;BME280;13818;52.156;5.382;2023-01-30T02:13:20;101278.16;;;7.72;100.00
26043;BME280;13818;52.156;5.382;2023-01-30T02:15:47;101284.44;;;7.68;100.00
26043;BME280;13818;52.156;5.382;2023-01-30T02:18:14;101284.59;;;7.61;100.00
26043;BME280;13818;52.156;5.382;2023-01-30T02:20:55;101266.81;;;7.67;100.00
26043;BME280;13818;52.156;5.382;2023-01-30T02:24:03;101279.22;;;7.64;100.00
26043;BME280;13818;52.156;5.382;2023-01-30T02:26:48;101278.72;;;7.50;100.00
26043;BME280;13818;52.156;5.382;2023-01-30T02:32:34;101284.97;;;7.47;100.00
26043;BME280;13818;52.156;5.382;2023-01-30T02:35:09;101276.16;;;7.47;100.00
26043;BME280;13818;52.156;5.382;2023-01-30T02:37:48;101272.50;;;7.51;100.00
26043;BME280;13818;52.156;5.382;2023-01-30T02:40:32;101270.59;;;7.56;100.00
26043;BME280;13818;52.156;5.382;2023-01-30T02:43:08;101259.06;;;7.57;100.00
26043;BME280;13818;52.156;5.382;2023-01-30T02:45:43;101252.88;;;7.58;100.00
26043;BME280;13818;52.156;5.382;2023-01-30T02:48:16;101260.91;;;7.55;100.00
26043;BME280;13818;52.156;5.382;2023-01-30T02:50:49;101263.84;;;7.44;100.00
26043;BME280;13818;52.156;5.382;2023-01-30T02:53:19;101263.91;;;7.43;100.00
26043;BME280;13818;52.156;5.382;2023-01-30T02:55:45;101256.00;;;7.40;100.00
26043;BME280;13818;52.156;5.382;2023-01-30T02:58:13;101253.28;;;7.43;100.00
26043;BME280;13818;52.156;5.382;2023-01-30T03:00:52;101249.69;;;7.45;100.00
26043;BME280;13818;52.156;5.382;2023-01-30T03:03:36;101255.84;;;7.46;100.00
26043;BME280;13818;52.156;5.382;2023-01-30T03:06:36;101246.22;;;7.42;100.00
26043;BME280;13818;52.156;5.382;2023-01-30T03:09:15;101251.44;;;7.46;100.00
26043;BME280;13818;52.156;5.382;2023-01-30T03:11:48;101249.72;;;7.44;100.00
26043;BME280;13818;52.156;5.382;2023-01-30T03:14:25;101240.94;;;7.42;100.00
26043;BME280;13818;52.156;5.382;2023-01-30T03:16:56;101234.72;;;7.43;100.00
26043;BME280;13818;52.156;5.382;2023-01-30T03:19:27;101246.28;;;7.39;100.00
26043;BME280;13818;52.156;5.382;2023-01-30T03:21:54;101225.09;;;7.39;100.00
26043;BME280;13818;52.156;5.382;2023-01-30T03:24:20;101241.88;;;7.39;100.00
26043;BME280;13818;52.156;5.382;2023-01-30T03:26:50;101241.00;;;7.39;100.00
26043;BME280;13818;52.156;5.382;2023-01-30T03:29:18;101226.81;;;7.40;100.00
26043;BME280;13818;52.156;5.382;2023-01-30T03:31:44;101218.00;;;7.39;100.00
26043;BME280;13818;52.156;5.382;2023-01-30T03:34:11;101228.69;;;7.36;100.00
26043;BME280;13818;52.156;5.382;2023-01-30T03:36:39;101226.88;;;7.38;100.00
26043;BME280;13818;52.156;5.382;2023-01-30T03:39:05;101219.78;;;7.39;100.00
26043;BME280;13818;52.156;5.382;2023-01-30T03:41:32;101231.13;;;7.45;100.00
26043;BME280;13818;52.156;5.382;2023-01-30T03:43:59;101226.59;;;7.49;100.00
26043;BME280;13818;52.156;5.382;2023-01-30T03:46:26;101228.31;;;7.50;100.00
26043;BME280;13818;52.156;5.382;2023-01-30T03:48:52;101224.75;;;7.51;100.00
26043;BME280;13818;52.156;5.382;2023-01-30T03:51:18;101213.34;;;7.47;100.00
26043;BME280;13818;52.156;5.382;2023-01-30T03:53:46;101210.53;;;7.55;100.00
26043;BME280;13818;52.156;5.382;2023-01-30T03:56:13;101226.34;;;7.58;100.00
26043;BME280;13818;52.156;5.382;2023-01-30T03:58:39;101215.63;;;7.61;100.00
26043;BME280;13818;52.156;5.382;2023-01-30T04:01:06;101208.59;;;7.60;100.00
26043;BME280;13818;52.156;5.382;2023-01-30T04:03:33;101213.97;;;7.57;100.00
26043;BME280;13818;52.156;5.382;2023-01-30T04:05:59;101212.13;;;7.61;100.00
26043;BME280;13818;52.156;5.382;2023-01-30T04:08:26;101216.41;;;7.67;100.00
26043;BME280;13818;52.156;5.382;2023-01-30T04:10:54;101217.19;;;7.69;100.00
26043;BME280;13818;52.156;5.382;2023-01-30T04:13:20;101207.59;;;7.64;100.00
26043;BME280;13818;52.156;5.382;2023-01-30T04:15:47;101214.72;;;7.62;100.00
26043;BME280;13818;52.156;5.382;2023-01-30T04:18:13;101214.66;;;7.64;100.00
26043;BME280;13818;52.156;5.382;2023-01-30T04:20:40;101223.47;;;7.66;100.00
26043;BME280;13818;52.156;5.382;2023-01-30T04:23:06;101231.44;;;7.66;100.00
26043;BME280;13818;52.156;5.382;2023-01-30T04:25:33;101230.53;;;7.67;100.00
26043;BME280;13818;52.156;5.382;2023-01-30T04:28:01;101235.81;;;7.67;100.00
26043;BME280;13818;52.156;5.382;2023-01-30T04:30:27;101236.66;;;7.69;100.00
26043;BME280;13818;52.156;5.382;2023-01-30T04:32:53;101234.88;;;7.70;100.00
26043;BME280;13818;52.156;5.382;2023-01-30T04:35:20;101231.31;;;7.71;100.00
26043;BME280;13818;52.156;5.382;2023-01-30T04:37:46;101233.25;;;7.64;100.00
26043;BME280;13818;52.156;5.382;2023-01-30T04:40:13;101243.69;;;7.70;100.00
26043;BME280;13818;52.156;5.382;2023-01-30T04:42:39;101221.50;;;7.73;100.00
26043;BME280;13818;52.156;5.382;2023-01-30T04:45:08;101227.88;;;7.67;100.00
26043;BME280;13818;52.156;5.382;2023-01-30T04:47:35;101226.06;;;7.68;100.00
26043;BME280;13818;52.156;5.382;2023-01-30T04:50:01;101220.59;;;7.74;100.00
26043;BME280;13818;52.156;5.382;2023-01-30T04:52:27;101232.91;;;7.76;100.00
26043;BME280;13818;52.156;5.382;2023-01-30T04:54:54;101238.19;;;7.78;100.00
26043;BME280;13818;52.156;5.382;2023-01-30T04:57:20;101233.69;;;7.80;100.00
26043;BME280;13818;52.156;5.382;2023-01-30T04:59:47;101218.66;;;7.80;100.00
26043;BME280;13818;52.156;5.382;2023-01-30T05:02:15;101226.63;;;7.79;100.00
26043;BME280;13818;52.156;5.382;2023-01-30T05:04:41;101238.09;;;7.81;100.00
26043;BME280;13818;52.156;5.382;2023-01-30T05:07:08;101237.09;;;7.85;100.00
26043;BME280;13818;52.156;5.382;2023-01-30T05:09:35;101247.75;;;7.84;100.00
26043;BME280;13818;52.156;5.382;2023-01-30T05:12:02;101241.53;;;7.85;100.00
26043;BME280;13818;52.156;5.382;2023-01-30T05:14:29;101246.00;;;7.82;100.00
26043;BME280;13818;52.156;5.382;2023-01-30T05:16:55;101238.88;;;7.85;100.00
26043;BME280;13818;52.156;5.382;2023-01-30T05:19:23;101246.00;;;7.82;100.00
26043;BME280;13818;52.156;5.382;2023-01-30T05:21:49;101230.88;;;7.86;100.00
26043;BME280;13818;52.156;5.382;2023-01-30T05:24:16;101238.88;;;7.85;100.00
26043;BME280;13818;52.156;5.382;2023-01-30T05:26:42;101213.97;;;7.89;100.00
26043;BME280;13818;52.156;5.382;2023-01-30T05:29:09;101236.97;;;7.90;100.00
26043;BME280;13818;52.156;5.382;2023-01-30T05:31:35;101231.94;;;7.79;100.00
26043;BME280;13818;52.156;5.382;2023-01-30T05:34:02;101253.34;;;7.73;100.00
26043;BME280;13818;52.156;5.382;2023-01-30T05:36:30;101245.31;;;7.76;100.00
26043;BME280;13818;52.156;5.382;2023-01-30T05:38:57;101234.75;;;7.74;100.00
26043;BME280;13818;52.156;5.382;2023-01-30T05:41:23;101248.19;;;7.68;100.00
26043;BME280;13818;52.156;5.382;2023-01-30T05:43:50;101252.59;;;7.68;100.00
26043;BME280;13818;52.156;5.382;2023-01-30T05:46:17;101257.91;;;7.68;100.00
26043;BME280;13818;52.156;5.382;2023-01-30T05:48:43;101252.66;;;7.66;100.00
26043;BME280;13818;52.156;5.382;2023-01-30T05:51:17;101244.75;;;7.64;100.00
26043;BME280;13818;52.156;5.382;2023-01-30T05:53:46;101258.91;;;7.63;100.00
26043;BME280;13818;52.156;5.382;2023-01-30T05:56:12;101254.50;;;7.62;100.00
26043;BME280;13818;52.156;5.382;2023-01-30T05:58:39;101251.13;;;7.57;100.00
26043;BME280;13818;52.156;5.382;2023-01-30T06:01:07;101244.91;;;7.58;100.00
26043;BME280;13818;52.156;5.382;2023-01-30T06:03:34;101254.81;;;7.52;100.00
26043;BME280;13818;52.156;5.382;2023-01-30T06:06:01;101258.66;;;7.40;100.00
26043;BME280;13818;52.156;5.382;2023-01-30T06:08:28;101256.91;;;7.39;100.00
26043;BME280;13818;52.156;5.382;2023-01-30T06:10:59;101255.31;;;7.33;100.00
26043;BME280;13818;52.156;5.382;2023-01-30T06:13:26;101266.81;;;7.32;100.00
26043;BME280;13818;52.156;5.382;2023-01-30T06:15:53;101280.13;;;7.30;100.00
26043;BME280;13818;52.156;5.382;2023-01-30T06:18:19;101266.84;;;7.30;100.00
26043;BME280;13818;52.156;5.382;2023-01-30T06:20:46;101266.91;;;7.29;100.00
26043;BME280;13818;52.156;5.382;2023-01-30T06:23:13;101263.66;;;7.16;100.00
26043;BME280;13818;52.156;5.382;2023-01-30T06:25:42;101269.75;;;7.21;100.00
26043;BME280;13818;52.156;5.382;2023-01-30T06:28:10;101261.09;;;7.13;100.00
26043;BME280;13818;52.156;5.382;2023-01-30T06:30:37;101271.91;;;7.05;100.00
26043;BME280;13818;52.156;5.382;2023-01-30T06:33:04;101272.00;;;7.00;100.00
26043;BME280;13818;52.156;5.382;2023-01-30T06:35:31;101266.75;;;6.99;100.00
26043;BME280;13818;52.156;5.382;2023-01-30T06:37:57;101275.59;;;6.98;100.00
26043;BME280;13818;52.156;5.382;2023-01-30T06:40:24;101280.97;;;6.96;100.00
26043;BME280;13818;52.156;5.382;2023-01-30T06:42:50;101274.16;;;6.84;100.00
26043;BME280;13818;52.156;5.382;2023-01-30T06:45:19;101269.75;;;6.85;100.00
26043;BME280;13818;52.156;5.382;2023-01-30T06:47:47;101267.81;;;6.92;100.00
26043;BME280;13818;52.156;5.382;2023-01-30T06:50:14;101279.28;;;6.92;100.00
26043;BME280;13818;52.156;5.382;2023-01-30T06:52:42;101271.47;;;6.86;100.00
26043;BME280;13818;52.156;5.382;2023-01-30T06:55:10;101278.72;;;6.78;100.00
26043;BME280;13818;52.156;5.382;2023-01-30T06:57:37;101274.28;;;6.80;100.00
26043;BME280;13818;52.156;5.382;2023-01-30T07:00:05;101281.28;;;6.82;100.00
26043;BME280;13818;52.156;5.382;2023-01-30T07:02:33;101294.53;;;6.82;100.00
26043;BME280;13818;52.156;5.382;2023-01-30T07:05:00;101296.38;;;6.79;100.00
26043;BME280;13818;52.156;5.382;2023-01-30T07:07:27;101292.97;;;6.74;100.00
26043;BME280;13818;52.156;5.382;2023-01-30T07:09:54;101297.38;;;6.73;100.00
26043;BME280;13818;52.156;5.382;2023-01-30T07:12:20;101298.19;;;6.77;100.00
26043;BME280;13818;52.156;5.382;2023-01-30T07:14:47;101320.34;;;6.73;100.00
26043;BME280;13818;52.156;5.382;2023-01-30T07:17:13;101312.41;;;6.73;100.00
26043;BME280;13818;52.156;5.382;2023-01-30T07:19:41;101326.59;;;6.70;100.00
26043;BME280;13818;52.156;5.382;2023-01-30T07:22:08;101331.81;;;6.73;100.00
26043;BME280;13818;52.156;5.382;2023-01-30T07:24:34;101342.38;;;6.76;100.00
26043;BME280;13818;52.156;5.382;2023-01-30T07:27:01;101336.22;;;6.74;100.00
26043;BME280;13818;52.156;5.382;2023-01-30T07:29:27;101336.22;;;6.74;100.00
26043;BME280;13818;52.156;5.382;2023-01-30T07:31:55;101345.09;;;6.72;100.00
26043;BME280;13818;52.156;5.382;2023-01-30T07:34:21;101340.69;;;6.72;100.00
26043;BME280;13818;52.156;5.382;2023-01-30T07:36:49;101339.84;;;6.70;100.00
26043;BME280;13818;52.156;5.382;2023-01-30T07:39:16;101347.66;;;6.76;100.00
26043;BME280;13818;52.156;5.382;2023-01-30T07:41:42;101351.34;;;6.69;100.00
26043;BME280;13818;52.156;5.382;2023-01-30T07:44:09;101351.16;;;6.77;100.00
26043;BME280;13818;52.156;5.382;2023-01-30T07:46:35;101346.75;;;6.77;100.00
26043;BME280;13818;52.156;5.382;2023-01-30T07:49:03;101337.78;;;6.83;100.00
26043;BME280;13818;52.156;5.382;2023-01-30T07:51:30;101334.41;;;6.76;100.00
26043;BME280;13818;52.156;5.382;2023-01-30T07:53:59;101333.50;;;6.77;100.00
26043;BME280;13818;52.156;5.382;2023-01-30T07:56:26;101343.31;;;6.74;100.00
26043;BME280;13818;52.156;5.382;2023-01-30T07:58:54;101345.88;;;6.77;100.00
26043;BME280;13818;52.156;5.382;2023-01-30T08:01:21;101340.41;;;6.84;100.00
26043;BME280;13818;52.156;5.382;2023-01-30T08:03:47;101336.88;;;6.84;100.00
26043;BME280;13818;52.156;5.382;2023-01-30T08:06:15;101345.56;;;6.91;100.00
26043;BME280;13818;52.156;5.382;2023-01-30T08:08:42;101340.13;;;6.97;100.00
26043;BME280;13818;52.156;5.382;2023-01-30T08:11:10;101340.03;;;7.02;100.00
26043;BME280;13818;52.156;5.382;2023-01-30T08:13:37;101346.09;;;7.07;100.00
26043;BME280;13818;52.156;5.382;2023-01-30T08:16:05;101353.03;;;7.12;100.00
26043;BME280;13818;52.156;5.382;2023-01-30T08:18:32;101360.81;;;7.19;100.00
26043;BME280;13818;52.156;5.382;2023-01-30T08:21:00;101355.59;;;7.15;100.00
26043;BME280;13818;52.156;5.382;2023-01-30T08:23:27;101366.91;;;7.22;100.00
26043;BME280;13818;52.156;5.382;2023-01-30T08:25:54;101360.53;;;7.31;100.00
26043;BME280;13818;52.156;5.382;2023-01-30T08:28:22;101376.47;;;7.29;100.00
26043;BME280;13818;52.156;5.382;2023-01-30T08:30:49;101376.44;;;7.32;100.00
26043;BME280;13818;52.156;5.382;2023-01-30T08:33:16;101386.09;;;7.35;100.00
26043;BME280;13818;52.156;5.382;2023-01-30T08:35:43;101392.91;;;7.45;100.00
26043;BME280;13818;52.156;5.382;2023-01-30T08:38:10;101383.19;;;7.44;100.00
26043;BME280;13818;52.156;5.382;2023-01-30T08:40:36;101392.16;;;7.40;100.00
26043;BME280;13818;52.156;5.382;2023-01-30T08:43:03;101385.91;;;7.43;100.00
26043;BME280;13818;52.156;5.382;2023-01-30T08:45:31;101395.03;;;7.29;100.00
26043;BME280;13818;52.156;5.382;2023-01-30T08:47:58;101379.09;;;7.32;100.00
26043;BME280;13818;52.156;5.382;2023-01-30T08:50:25;101374.53;;;7.36;100.00
26043;BME280;13818;52.156;5.382;2023-01-30T08:52:51;101379.09;;;7.32;100.00
26043;BME280;13818;52.156;5.382;2023-01-30T08:55:18;101373.69;;;7.36;100.00
26043;BME280;13818;52.156;5.382;2023-01-30T08:57:45;101383.13;;;7.47;100.00
26043;BME280;13818;52.156;5.382;2023-01-30T09:00:12;101392.66;;;7.55;100.00
26043;BME280;13818;52.156;5.382;2023-01-30T09:02:40;101400.59;;;7.56;100.00
26043;BME280;13818;52.156;5.382;2023-01-30T09:05:08;101404.97;;;7.57;100.00
26043;BME280;13818;52.156;5.382;2023-01-30T09:07:35;101405.13;;;7.51;100.00
26043;BME280;13818;52.156;5.382;2023-01-30T09:10:02;101419.25;;;7.53;100.00
26043;BME280;13818;52.156;5.382;2023-01-30T09:12:28;101406.66;;;7.61;100.00
26043;BME280;13818;52.156;5.382;2023-01-30T09:14:55;101411.34;;;7.50;100.00
26043;BME280;13818;52.156;5.382;2023-01-30T09:17:23;101422.66;;;7.58;100.00
26043;BME280;13818;52.156;5.382;2023-01-30T09:19:50;101426.25;;;7.56;100.00
26043;BME280;13818;52.156;5.382;2023-01-30T09:22:17;101431.41;;;7.62;100.00
26043;BME280;13818;52.156;5.382;2023-01-30T09:24:43;101438.56;;;7.58;100.00
26043;BME280;13818;52.156;5.382;2023-01-30T09:27:10;101438.56;;;7.58;100.00
26043;BME280;13818;52.156;5.382;2023-01-30T09:29:36;101433.25;;;7.58;100.00
26043;BME280;13818;52.156;5.382;2023-01-30T09:32:03;101436.72;;;7.62;100.00
26043;BME280;13818;52.156;5.382;2023-01-30T09:34:29;101419.25;;;7.53;100.00
26043;BME280;13818;52.156;5.382;2023-01-30T09:36:58;101442.22;;;7.54;100.00
26043;BME280;13818;52.156;5.382;2023-01-30T09:39:25;101445.53;;;7.62;100.00
26043;BME280;13818;52.156;5.382;2023-01-30T09:42:07;101447.38;;;7.59;100.00
26043;BME280;13818;52.156;5.382;2023-01-30T09:44:57;101444.38;;;7.74;100.00
26043;BME280;13818;52.156;5.382;2023-01-30T09:47:35;101441.66;;;7.77;100.00
26043;BME280;13818;52.156;5.382;2023-01-30T09:50:23;101448.00;;;7.70;100.00
26043;BME280;13818;52.156;5.382;2023-01-30T09:52:59;101449.69;;;7.74;100.00
26043;BME280;13818;52.156;5.382;2023-01-30T09:55:30;101460.47;;;7.68;100.00
26043;BME280;13818;52.156;5.382;2023-01-30T09:57:59;101457.66;;;7.74;100.00
26043;BME280;13818;52.156;5.382;2023-01-30T10:00:31;101463.81;;;7.75;100.00
26043;BME280;13818;52.156;5.382;2023-01-30T10:03:04;101457.66;;;7.73;100.00
26043;BME280;13818;52.156;5.382;2023-01-30T10:05:37;101460.31;;;7.73;100.00
26043;BME280;13818;52.156;5.382;2023-01-30T10:08:20;101471.84;;;7.73;100.00
26043;BME280;13818;52.156;5.382;2023-01-30T10:10:52;101470.03;;;7.74;100.00
26043;BME280;13818;52.156;5.382;2023-01-30T10:13:34;101467.09;;;7.86;100.00
26043;BME280;13818;52.156;5.382;2023-01-30T10:16:10;101491.88;;;7.85;100.00
26043;BME280;13818;52.156;5.382;2023-01-30T10:21:38;101488.41;;;7.81;100.00
26043;BME280;13818;52.156;5.382;2023-01-30T10:24:21;101483.88;;;7.87;100.00
26043;BME280;13818;52.156;5.382;2023-01-30T10:26:52;101500.84;;;7.81;100.00
26043;BME280;13818;52.156;5.382;2023-01-30T10:29:20;101504.34;;;7.81;100.00
26043;BME280;13818;52.156;5.382;2023-01-30T10:31:54;101497.31;;;7.79;100.00
26043;BME280;13818;52.156;5.382;2023-01-30T10:34:26;101506.09;;;7.82;100.00
26043;BME280;13818;52.156;5.382;2023-01-30T10:36:57;101494.53;;;7.85;100.00
26043;BME280;13818;52.156;5.382;2023-01-30T10:39:34;101493.59;;;7.88;100.00
26043;BME280;13818;52.156;5.382;2023-01-30T10:42:07;101504.34;;;7.81;100.00
26043;BME280;13818;52.156;5.382;2023-01-30T10:44:35;101508.78;;;7.81;100.00
26043;BME280;13818;52.156;5.382;2023-01-30T10:47:21;101496.44;;;7.80;100.00
26043;BME280;13818;52.156;5.382;2023-01-30T10:49:51;101503.47;;;7.81;100.00
26043;BME280;13818;52.156;5.382;2023-01-30T10:52:26;101514.75;;;7.91;100.00
26043;BME280;13818;52.156;5.382;2023-01-30T10:55:05;101503.25;;;7.90;100.00
26043;BME280;13818;52.156;5.382;2023-01-30T10:57:52;101508.41;;;7.96;100.00
26043;BME280;13818;52.156;5.382;2023-01-30T11:00:27;101501.06;;;8.08;100.00
26043;BME280;13818;52.156;5.382;2023-01-30T11:03:03;101513.19;;;8.18;100.00
26043;BME280;13818;52.156;5.382;2023-01-30T11:05:40;101513.03;;;8.24;100.00
26043;BME280;13818;52.156;5.382;2023-01-30T11:08:18;101510.97;;;8.36;100.00
26043;BME280;13818;52.156;5.382;2023-01-30T11:10:46;101519.81;;;8.36;100.00
26043;BME280;13818;52.156;5.382;2023-01-30T11:13:16;101505.59;;;8.39;100.00
26043;BME280;13818;52.156;5.382;2023-01-30T11:15:44;101504.16;;;8.25;100.00
26043;BME280;13818;52.156;5.382;2023-01-30T11:18:14;101509.56;;;8.22;100.00
26043;BME280;13818;52.156;5.382;2023-01-30T11:20:41;101513.75;;;8.31;100.00
26043;BME280;13818;52.156;5.382;2023-01-30T11:23:23;101513.00;;;8.26;100.00
26043;BME280;13818;52.156;5.382;2023-01-30T11:25:53;101504.94;;;8.29;100.00
26043;BME280;13818;52.156;5.382;2023-01-30T11:28:20;101506.50;;;8.38;100.00
26043;BME280;13818;52.156;5.382;2023-01-30T11:30:51;101496.88;;;8.34;100.00
26043;BME280;13818;52.156;5.382;2023-01-30T11:33:19;101493.47;;;8.28;100.00
26043;BME280;13818;52.156;5.382;2023-01-30T11:35:52;101494.25;;;8.32;100.00
26043;BME280;13818;52.156;5.382;2023-01-30T11:38:22;101500.34;;;8.36;100.00
26043;BME280;13818;52.156;5.382;2023-01-30T11:41:00;101497.66;;;8.37;100.00
26043;BME280;13818;52.156;5.382;2023-01-30T11:43:27;101501.13;;;8.39;100.00
26043;BME280;13818;52.156;5.382;2023-01-30T11:45:54;101487.06;;;8.36;100.00
26043;BME280;13818;52.156;5.382;2023-01-30T11:48:25;101505.81;;;8.29;100.00
26043;BME280;13818;52.156;5.382;2023-01-30T11:50:54;101501.38;;;8.30;100.00
26043;BME280;13818;52.156;5.382;2023-01-30T11:53:29;101506.59;;;8.33;100.00
26043;BME280;13818;52.156;5.382;2023-01-30T11:56:04;101499.28;;;8.43;100.00
26043;BME280;13818;52.156;5.382;2023-01-30T11:58:33;101499.03;;;8.52;100.00
26043;BME280;13818;52.156;5.382;2023-01-30T12:01:01;101497.16;;;8.57;100.00
26043;BME280;13818;52.156;5.382;2023-01-30T12:03:27;101507.75;;;8.59;100.00
26043;BME280;13818;52.156;5.382;2023-01-30T12:05:56;101505.56;;;8.73;100.00
26043;BME280;13818;52.156;5.382;2023-01-30T12:08:25;101513.84;;;8.62;100.00
26043;BME280;13818;52.156;5.382;2023-01-30T12:10:54;101497.13;;;8.59;100.00
26043;BME280;13818;52.156;5.382;2023-01-30T12:13:28;101515.78;;;8.57;100.00
26043;BME280;13818;52.156;5.382;2023-01-30T12:16:05;101532.72;;;8.52;100.00
26043;BME280;13818;52.156;5.382;2023-01-30T12:18:41;101529.78;;;8.62;100.00
26043;BME280;13818;52.156;5.382;2023-01-30T12:21:16;101528.84;;;8.65;100.00
26043;BME280;13818;52.156;5.382;2023-01-30T12:23:50;101535.97;;;8.63;100.00
26043;BME280;13818;52.156;5.382;2023-01-30T12:26:20;101536.09;;;8.58;100.00
26043;BME280;13818;52.156;5.382;2023-01-30T12:28:55;101544.09;;;8.57;100.00
26043;BME280;13818;52.156;5.382;2023-01-30T12:31:27;101528.25;;;8.54;100.00
26043;BME280;13818;52.156;5.382;2023-01-30T12:33:55;101530.97;;;8.51;100.00
26043;BME280;13818;52.156;5.382;2023-01-30T12:36:31;101538.22;;;8.44;100.00
26043;BME280;13818;52.156;5.382;2023-01-30T12:39:12;101537.28;;;8.46;100.00
26043;BME280;13818;52.156;5.382;2023-01-30T12:42:01;101549.53;;;8.52;100.00
26043;BME280;13818;52.156;5.382;2023-01-30T12:44:44;101541.66;;;8.49;100.00
26043;BME280;13818;52.156;5.382;2023-01-30T12:47:22;101535.44;;;8.50;100.00
26043;BME280;13818;52.156;5.382;2023-01-30T12:49:58;101555.81;;;8.50;100.00
26043;BME280;13818;52.156;5.382;2023-01-30T12:52:42;101554.94;;;8.49;100.00
26043;BME280;13818;52.156;5.382;2023-01-30T12:55:30;101546.00;;;8.52;100.00
26043;BME280;13818;52.156;5.382;2023-01-30T12:58:05;101549.72;;;8.46;100.00
26043;BME280;13818;52.156;5.382;2023-01-30T13:00:49;101556.75;;;8.47;100.00
26043;BME280;13818;52.156;5.382;2023-01-30T13:03:28;101544.53;;;8.40;100.00
26043;BME280;13818;52.156;5.382;2023-01-30T13:06:03;101560.38;;;8.43;100.00
26043;BME280;13818;52.156;5.382;2023-01-30T13:08:44;101577.22;;;8.42;100.00
26043;BME280;13818;52.156;5.382;2023-01-30T13:11:25;101569.25;;;8.43;100.00